NDF6026 LOWI-EDDH
Flight info
| Callsign | NDF6026 |
|---|---|
| Flight time | 1h 12m |
| Altitude | 36000 |
| Route | KOGOL3J KOGOL M726 KEMES DCT GASKA DCT ELNAT P605 NOLGO NOLGO6A |
| Aircraft | B738/M-SDE2E3FGHIRWXY/LB1 |
Departure
| Time | 2026-05-07 18:21 |
|---|---|
| Airport | Innsbruck Airport (LOWI) |
Arrival
| Time | 2026-05-07 19:33 |
|---|---|
| Airport | Hamburg Helmut Schmidt Airport (EDDH) |
| Time | Latitude | Longitude | Altitude | Speed | Heading |
|---|---|---|---|---|---|
| 2026-05-07 17:53 | 47.25849 | 11.35240 | 1908 ft | 0 kts | 171° |
| 2026-05-07 18:12 | 47.25853 | 11.35239 | 1906 ft | 2 kts | 171° |
| 2026-05-07 18:13 | 47.25867 | 11.35236 | 1906 ft | 2 kts | 171° |
| 2026-05-07 18:13 | 47.25883 | 11.35234 | 1906 ft | 2 kts | 199° |
| 2026-05-07 18:13 | 47.25895 | 11.35246 | 1906 ft | 2 kts | 233° |
| 2026-05-07 18:13 | 47.25900 | 11.35260 | 1906 ft | 0 kts | 258° |
| 2026-05-07 18:14 | 47.25901 | 11.35270 | 1906 ft | 0 kts | 261° |
| 2026-05-07 18:14 | 47.25901 | 11.35271 | 1905 ft | 0 kts | 261° |
| 2026-05-07 18:15 | 47.25899 | 11.35260 | 1905 ft | 1 kts | 261° |
| 2026-05-07 18:16 | 47.25897 | 11.35234 | 1905 ft | 2 kts | 259° |
| 2026-05-07 18:16 | 47.25891 | 11.35183 | 1905 ft | 8 kts | 259° |
| 2026-05-07 18:16 | 47.25879 | 11.35085 | 1906 ft | 9 kts | 259° |
| 2026-05-07 18:16 | 47.25869 | 11.34991 | 1906 ft | 9 kts | 261° |
| 2026-05-07 18:17 | 47.25860 | 11.34907 | 1907 ft | 7 kts | 261° |
| 2026-05-07 18:17 | 47.25853 | 11.34844 | 1908 ft | 7 kts | 261° |
| 2026-05-07 18:17 | 47.25840 | 11.34714 | 1908 ft | 18 kts | 261° |
| 2026-05-07 18:17 | 47.25818 | 11.34506 | 1911 ft | 20 kts | 261° |
| 2026-05-07 18:18 | 47.25793 | 11.34275 | 1913 ft | 22 kts | 261° |
| 2026-05-07 18:18 | 47.25771 | 11.34065 | 1917 ft | 19 kts | 261° |
| 2026-05-07 18:18 | 47.25795 | 11.33903 | 1922 ft | 14 kts | 303° |
| 2026-05-07 18:18 | 47.25858 | 11.33775 | 1926 ft | 17 kts | 306° |
| 2026-05-07 18:19 | 47.25931 | 11.33611 | 1931 ft | 20 kts | 280° |
| 2026-05-07 18:19 | 47.25912 | 11.33402 | 1934 ft | 21 kts | 260° |
| 2026-05-07 18:19 | 47.25868 | 11.33199 | 1931 ft | 18 kts | 217° |
| 2026-05-07 18:19 | 47.25874 | 11.33146 | 1930 ft | 9 kts | 24° |
| 2026-05-07 18:20 | 47.25908 | 11.33336 | 1934 ft | 43 kts | 81° |
| 2026-05-07 18:20 | 47.25991 | 11.34122 | 1916 ft | 111 kts | 81° |
| 2026-05-07 18:20 | 47.26141 | 11.35528 | 1917 ft | 160 kts | 80° |
| 2026-05-07 18:20 | 47.26284 | 11.37145 | 2457 ft | 159 kts | 82° |
| 2026-05-07 18:21 | 47.26466 | 11.38787 | 2968 ft | 169 kts | 77° |
| 2026-05-07 18:21 | 47.26694 | 11.40554 | 3413 ft | 184 kts | 78° |
| 2026-05-07 18:21 | 47.26909 | 11.42483 | 3831 ft | 202 kts | 79° |
| 2026-05-07 18:21 | 47.27153 | 11.44590 | 4299 ft | 219 kts | 75° |
| 2026-05-07 18:22 | 47.27636 | 11.46806 | 4843 ft | 234 kts | 66° |
| 2026-05-07 18:22 | 47.28064 | 11.48294 | 5216 ft | 244 kts | 64° |
| 2026-05-07 18:22 | 47.29012 | 11.51429 | 5932 ft | 264 kts | 65° |
| 2026-05-07 18:22 | 47.29758 | 11.53969 | 6609 ft | 273 kts | 66° |
| 2026-05-07 18:23 | 47.30494 | 11.56548 | 7450 ft | 276 kts | 66° |
| 2026-05-07 18:23 | 47.31225 | 11.59147 | 8297 ft | 278 kts | 66° |
| 2026-05-07 18:23 | 47.31966 | 11.61772 | 9072 ft | 282 kts | 65° |
| 2026-05-07 18:23 | 47.32753 | 11.64524 | 9472 ft | 299 kts | 65° |
| 2026-05-07 18:24 | 47.33576 | 11.67383 | 9547 ft | 302 kts | 66° |
| 2026-05-07 18:24 | 47.34383 | 11.70190 | 9543 ft | 289 kts | 66° |
| 2026-05-07 18:24 | 47.35147 | 11.72855 | 9541 ft | 281 kts | 66° |
| 2026-05-07 18:24 | 47.35912 | 11.75520 | 9540 ft | 282 kts | 66° |
| 2026-05-07 18:25 | 47.36684 | 11.78213 | 9529 ft | 284 kts | 66° |
| 2026-05-07 18:25 | 47.37447 | 11.80875 | 9528 ft | 283 kts | 66° |
| 2026-05-07 18:25 | 47.38220 | 11.83561 | 9529 ft | 282 kts | 66° |
| 2026-05-07 18:25 | 47.38988 | 11.86218 | 9531 ft | 283 kts | 65° |
| 2026-05-07 18:26 | 47.39766 | 11.88905 | 9534 ft | 283 kts | 65° |
| 2026-05-07 18:26 | 47.40528 | 11.91569 | 9539 ft | 287 kts | 65° |
| 2026-05-07 18:26 | 47.41307 | 11.94310 | 9526 ft | 289 kts | 66° |
| 2026-05-07 18:26 | 47.42084 | 11.97053 | 9533 ft | 289 kts | 66° |
| 2026-05-07 18:27 | 47.42862 | 11.99790 | 9545 ft | 294 kts | 65° |
| 2026-05-07 18:27 | 47.43889 | 12.02485 | 10123 ft | 302 kts | 48° |
| 2026-05-07 18:27 | 47.45403 | 12.04556 | 10835 ft | 308 kts | 32° |
| 2026-05-07 18:27 | 47.47356 | 12.06013 | 11419 ft | 319 kts | 19° |
| 2026-05-07 18:28 | 47.49543 | 12.06876 | 11893 ft | 334 kts | 6° |
| 2026-05-07 18:28 | 47.51926 | 12.06751 | 12349 ft | 349 kts | 346° |
| 2026-05-07 18:28 | 47.54190 | 12.05412 | 12822 ft | 362 kts | 328° |
| 2026-05-07 18:28 | 47.56245 | 12.03109 | 13421 ft | 373 kts | 316° |
| 2026-05-07 18:29 | 47.58276 | 12.00703 | 14251 ft | 380 kts | 326° |
| 2026-05-07 18:29 | 47.60618 | 11.98940 | 15178 ft | 385 kts | 335° |
| 2026-05-07 18:29 | 47.63110 | 11.97467 | 16044 ft | 390 kts | 337° |
| 2026-05-07 18:29 | 47.65667 | 11.95995 | 16865 ft | 395 kts | 336° |
| 2026-05-07 18:30 | 47.68191 | 11.94460 | 17706 ft | 399 kts | 335° |
| 2026-05-07 18:30 | 47.70755 | 11.92804 | 18508 ft | 404 kts | 334° |
| 2026-05-07 18:30 | 47.73308 | 11.91077 | 19315 ft | 407 kts | 333° |
| 2026-05-07 18:30 | 47.75890 | 11.89279 | 20116 ft | 411 kts | 333° |
| 2026-05-07 18:31 | 47.78460 | 11.87460 | 20847 ft | 415 kts | 332° |
| 2026-05-07 18:31 | 47.81084 | 11.85591 | 21606 ft | 419 kts | 332° |
| 2026-05-07 18:31 | 47.83734 | 11.83699 | 22355 ft | 422 kts | 332° |
| 2026-05-07 18:31 | 47.86354 | 11.81826 | 23043 ft | 427 kts | 333° |
| 2026-05-07 18:32 | 47.89061 | 11.79889 | 23760 ft | 430 kts | 332° |
| 2026-05-07 18:32 | 47.91759 | 11.77960 | 24380 ft | 435 kts | 332° |
| 2026-05-07 18:32 | 47.94478 | 11.76013 | 25033 ft | 438 kts | 332° |
| 2026-05-07 18:32 | 47.97255 | 11.74022 | 25709 ft | 441 kts | 332° |
| 2026-05-07 18:33 | 48.00033 | 11.72029 | 26272 ft | 446 kts | 332° |
| 2026-05-07 18:33 | 48.02824 | 11.70023 | 26836 ft | 450 kts | 332° |
| 2026-05-07 18:33 | 48.05641 | 11.67997 | 27401 ft | 453 kts | 332° |
| 2026-05-07 18:33 | 48.08503 | 11.65935 | 27950 ft | 456 kts | 333° |
| 2026-05-07 18:34 | 48.11331 | 11.63896 | 28508 ft | 458 kts | 333° |
| 2026-05-07 18:34 | 48.14198 | 11.61829 | 29458 ft | 452 kts | 333° |
| 2026-05-07 18:34 | 48.17027 | 11.59786 | 30169 ft | 451 kts | 333° |
| 2026-05-07 18:34 | 48.19809 | 11.57774 | 30830 ft | 449 kts | 333° |
| 2026-05-07 18:35 | 48.22631 | 11.55730 | 31404 ft | 448 kts | 332° |
| 2026-05-07 18:35 | 48.25451 | 11.53758 | 31837 ft | 449 kts | 335° |
| 2026-05-07 18:35 | 48.28376 | 11.52167 | 32233 ft | 451 kts | 341° |
| 2026-05-07 18:35 | 48.31441 | 11.51043 | 32572 ft | 454 kts | 347° |
| 2026-05-07 18:36 | 48.34517 | 11.50351 | 32933 ft | 455 kts | 350° |
| 2026-05-07 18:36 | 48.37665 | 11.49837 | 33247 ft | 457 kts | 352° |
| 2026-05-07 18:36 | 48.40837 | 11.49360 | 33577 ft | 457 kts | 351° |
| 2026-05-07 18:36 | 48.43986 | 11.48846 | 33873 ft | 458 kts | 351° |
| 2026-05-07 18:37 | 48.47164 | 11.48280 | 34190 ft | 458 kts | 350° |
| 2026-05-07 18:37 | 48.50273 | 11.47678 | 34522 ft | 458 kts | 349° |
| 2026-05-07 18:37 | 48.53471 | 11.47011 | 34867 ft | 457 kts | 349° |
| 2026-05-07 18:37 | 48.56567 | 11.46328 | 35179 ft | 457 kts | 348° |
| 2026-05-07 18:38 | 48.59693 | 11.45614 | 35474 ft | 458 kts | 348° |
| 2026-05-07 18:38 | 48.62833 | 11.44882 | 35800 ft | 458 kts | 348° |
| 2026-05-07 18:38 | 48.66002 | 11.44135 | 36005 ft | 460 kts | 348° |
| 2026-05-07 18:39 | 48.72324 | 11.42626 | 36037 ft | 461 kts | 348° |
| 2026-05-07 18:39 | 48.78666 | 11.41105 | 36039 ft | 457 kts | 348° |
| 2026-05-07 18:40 | 48.84899 | 11.39603 | 36038 ft | 457 kts | 348° |
| 2026-05-07 18:40 | 48.91168 | 11.38086 | 36033 ft | 458 kts | 348° |
| 2026-05-07 18:41 | 48.97475 | 11.36555 | 36032 ft | 458 kts | 348° |
| 2026-05-07 18:41 | 49.03696 | 11.35043 | 36029 ft | 458 kts | 348° |
| 2026-05-07 18:42 | 49.09937 | 11.33522 | 36026 ft | 457 kts | 348° |
| 2026-05-07 18:42 | 49.16206 | 11.31989 | 36029 ft | 457 kts | 348° |
| 2026-05-07 18:43 | 49.22466 | 11.30458 | 36028 ft | 458 kts | 348° |
| 2026-05-07 18:43 | 49.28743 | 11.28917 | 36033 ft | 458 kts | 348° |
| 2026-05-07 18:44 | 49.34948 | 11.27238 | 36029 ft | 454 kts | 341° |
| 2026-05-07 18:44 | 49.40663 | 11.23357 | 36040 ft | 450 kts | 328° |
| 2026-05-07 18:45 | 49.46041 | 11.18538 | 36038 ft | 450 kts | 327° |
| 2026-05-07 18:45 | 49.51439 | 11.13693 | 36042 ft | 450 kts | 328° |
| 2026-05-07 18:46 | 49.56882 | 11.09005 | 36040 ft | 451 kts | 329° |
| 2026-05-07 18:46 | 49.62352 | 11.04425 | 36037 ft | 451 kts | 329° |
| 2026-05-07 18:47 | 49.67874 | 10.99849 | 36030 ft | 451 kts | 330° |
| 2026-05-07 18:47 | 49.73395 | 10.95279 | 36028 ft | 450 kts | 330° |
| 2026-05-07 18:48 | 49.78866 | 10.90742 | 36029 ft | 451 kts | 330° |
| 2026-05-07 18:48 | 49.84390 | 10.86150 | 36027 ft | 451 kts | 330° |
| 2026-05-07 18:49 | 49.89876 | 10.81578 | 36028 ft | 450 kts | 330° |
| 2026-05-07 18:49 | 49.95367 | 10.76991 | 36024 ft | 452 kts | 330° |
| 2026-05-07 18:50 | 50.00900 | 10.72358 | 36035 ft | 452 kts | 330° |
| 2026-05-07 18:50 | 50.06418 | 10.67725 | 36037 ft | 451 kts | 330° |
| 2026-05-07 18:51 | 50.11904 | 10.63104 | 36036 ft | 450 kts | 330° |
| 2026-05-07 18:51 | 50.17371 | 10.58484 | 36040 ft | 451 kts | 330° |
| 2026-05-07 18:52 | 50.22899 | 10.53804 | 36046 ft | 451 kts | 330° |
| 2026-05-07 18:52 | 50.28361 | 10.49167 | 36049 ft | 451 kts | 330° |
| 2026-05-07 18:53 | 50.33883 | 10.44466 | 36052 ft | 451 kts | 330° |
| 2026-05-07 18:53 | 50.39388 | 10.39769 | 36050 ft | 451 kts | 330° |
| 2026-05-07 18:54 | 50.44851 | 10.35096 | 36052 ft | 451 kts | 330° |
| 2026-05-07 18:54 | 50.50319 | 10.30405 | 36053 ft | 451 kts | 329° |
| 2026-05-07 18:55 | 50.55831 | 10.25662 | 36050 ft | 451 kts | 329° |
| 2026-05-07 18:55 | 50.61327 | 10.20923 | 36050 ft | 451 kts | 329° |
| 2026-05-07 18:56 | 50.66766 | 10.16220 | 36054 ft | 451 kts | 330° |
| 2026-05-07 18:56 | 50.72225 | 10.11486 | 36058 ft | 451 kts | 330° |
| 2026-05-07 18:57 | 50.77665 | 10.06755 | 36058 ft | 451 kts | 330° |
| 2026-05-07 18:57 | 50.83155 | 10.01968 | 36059 ft | 450 kts | 330° |
| 2026-05-07 18:58 | 50.88630 | 9.97183 | 36070 ft | 451 kts | 330° |
| 2026-05-07 18:58 | 50.94119 | 9.92373 | 36068 ft | 451 kts | 330° |
| 2026-05-07 18:59 | 50.99526 | 9.87625 | 36073 ft | 451 kts | 330° |
| 2026-05-07 18:59 | 51.05029 | 9.82774 | 36074 ft | 450 kts | 330° |
| 2026-05-07 19:00 | 51.10373 | 9.78051 | 36077 ft | 450 kts | 330° |
| 2026-05-07 19:00 | 51.15892 | 9.73243 | 36069 ft | 450 kts | 333° |
| 2026-05-07 19:01 | 51.21787 | 9.70075 | 36064 ft | 453 kts | 352° |
| 2026-05-07 19:01 | 51.28091 | 9.70115 | 36066 ft | 456 kts | 3° |
| 2026-05-07 19:02 | 51.34355 | 9.71095 | 36066 ft | 455 kts | 5° |
| 2026-05-07 19:02 | 51.40616 | 9.72214 | 36060 ft | 455 kts | 5° |
| 2026-05-07 19:03 | 51.46916 | 9.73322 | 36070 ft | 455 kts | 5° |
| 2026-05-07 19:03 | 51.53212 | 9.74480 | 36078 ft | 455 kts | 6° |
| 2026-05-07 19:04 | 51.59471 | 9.75700 | 36069 ft | 455 kts | 6° |
| 2026-05-07 19:04 | 51.65757 | 9.76924 | 36086 ft | 455 kts | 6° |
| 2026-05-07 19:05 | 51.71978 | 9.78125 | 36074 ft | 454 kts | 6° |
| 2026-05-07 19:05 | 51.78271 | 9.79333 | 36075 ft | 454 kts | 6° |
| 2026-05-07 19:06 | 51.84533 | 9.80532 | 36071 ft | 455 kts | 6° |
| 2026-05-07 19:06 | 51.93906 | 9.82332 | 36076 ft | 454 kts | 6° |
| 2026-05-07 19:07 | 52.00160 | 9.83547 | 36080 ft | 453 kts | 6° |
| 2026-05-07 19:07 | 52.06436 | 9.84770 | 36082 ft | 455 kts | 6° |
| 2026-05-07 19:08 | 52.12606 | 9.85973 | 36081 ft | 454 kts | 6° |
| 2026-05-07 19:08 | 52.18871 | 9.87199 | 35835 ft | 449 kts | 6° |
| 2026-05-07 19:09 | 52.21965 | 9.87805 | 35233 ft | 451 kts | 6° |
| 2026-05-07 19:09 | 52.25031 | 9.88513 | 34673 ft | 451 kts | 10° |
| 2026-05-07 19:09 | 52.28091 | 9.89538 | 34077 ft | 451 kts | 13° |
| 2026-05-07 19:09 | 52.31117 | 9.90767 | 33411 ft | 451 kts | 14° |
| 2026-05-07 19:10 | 52.34170 | 9.92116 | 32566 ft | 453 kts | 15° |
| 2026-05-07 19:10 | 52.37157 | 9.93476 | 31721 ft | 455 kts | 15° |
| 2026-05-07 19:10 | 52.40231 | 9.94888 | 30804 ft | 458 kts | 15° |
| 2026-05-07 19:10 | 52.43294 | 9.96291 | 29727 ft | 461 kts | 14° |
| 2026-05-07 19:11 | 52.46356 | 9.97684 | 28625 ft | 464 kts | 14° |
| 2026-05-07 19:11 | 52.49486 | 9.99101 | 27428 ft | 469 kts | 14° |
| 2026-05-07 19:11 | 52.52632 | 10.00517 | 26203 ft | 473 kts | 14° |
| 2026-05-07 19:11 | 52.55803 | 10.01940 | 25244 ft | 470 kts | 14° |
| 2026-05-07 19:12 | 52.58881 | 10.03321 | 25097 ft | 454 kts | 14° |
| 2026-05-07 19:12 | 52.61920 | 10.04686 | 25093 ft | 455 kts | 14° |
| 2026-05-07 19:12 | 52.65013 | 10.06072 | 25021 ft | 460 kts | 14° |
| 2026-05-07 19:12 | 52.68082 | 10.07449 | 24286 ft | 460 kts | 14° |
| 2026-05-07 19:13 | 52.71158 | 10.08831 | 23373 ft | 458 kts | 14° |
| 2026-05-07 19:13 | 52.74216 | 10.10130 | 22624 ft | 452 kts | 12° |
| 2026-05-07 19:13 | 52.77266 | 10.11179 | 21864 ft | 447 kts | 8° |
| 2026-05-07 19:13 | 52.80336 | 10.11799 | 21109 ft | 441 kts | 4° |
| 2026-05-07 19:14 | 52.83356 | 10.12107 | 20349 ft | 436 kts | 1° |
| 2026-05-07 19:14 | 52.86354 | 10.12261 | 19600 ft | 432 kts | 0° |
| 2026-05-07 19:14 | 52.89347 | 10.12344 | 18857 ft | 427 kts | 0° |
| 2026-05-07 19:14 | 52.92271 | 10.12399 | 18126 ft | 422 kts | 360° |
| 2026-05-07 19:15 | 52.95180 | 10.12446 | 17403 ft | 418 kts | 360° |
| 2026-05-07 19:15 | 52.98071 | 10.12501 | 16678 ft | 414 kts | 0° |
| 2026-05-07 19:15 | 53.00932 | 10.12568 | 15980 ft | 408 kts | 0° |
| 2026-05-07 19:15 | 53.03723 | 10.12644 | 15267 ft | 404 kts | 0° |
| 2026-05-07 19:16 | 53.06540 | 10.12728 | 14528 ft | 400 kts | 1° |
| 2026-05-07 19:16 | 53.09264 | 10.12815 | 13825 ft | 396 kts | 1° |
| 2026-05-07 19:16 | 53.11993 | 10.12905 | 13121 ft | 392 kts | 1° |
| 2026-05-07 19:16 | 53.14727 | 10.12997 | 12426 ft | 388 kts | 1° |
| 2026-05-07 19:17 | 53.17381 | 10.13085 | 11721 ft | 384 kts | 1° |
| 2026-05-07 19:17 | 53.20048 | 10.13173 | 11010 ft | 380 kts | 1° |
| 2026-05-07 19:17 | 53.22632 | 10.13248 | 10695 ft | 365 kts | 1° |
| 2026-05-07 19:17 | 53.25113 | 10.13308 | 10452 ft | 350 kts | 1° |
| 2026-05-07 19:18 | 53.27491 | 10.13358 | 10247 ft | 336 kts | 1° |
| 2026-05-07 19:18 | 53.29783 | 10.13403 | 10086 ft | 321 kts | 1° |
| 2026-05-07 19:18 | 53.31984 | 10.13446 | 9982 ft | 306 kts | 1° |
| 2026-05-07 19:18 | 53.34031 | 10.13870 | 9867 ft | 292 kts | 16° |
| 2026-05-07 19:19 | 53.35890 | 10.14985 | 9712 ft | 281 kts | 22° |
| 2026-05-07 19:19 | 53.37681 | 10.16264 | 9359 ft | 278 kts | 24° |
| 2026-05-07 19:19 | 53.39433 | 10.17544 | 8976 ft | 277 kts | 24° |
| 2026-05-07 19:19 | 53.41209 | 10.18839 | 8601 ft | 274 kts | 24° |
| 2026-05-07 19:20 | 53.42939 | 10.20092 | 8239 ft | 272 kts | 24° |
| 2026-05-07 19:20 | 53.44670 | 10.21338 | 7858 ft | 270 kts | 24° |
| 2026-05-07 19:20 | 53.46376 | 10.22561 | 7501 ft | 268 kts | 24° |
| 2026-05-07 19:20 | 53.48085 | 10.23780 | 7134 ft | 266 kts | 24° |
| 2026-05-07 19:21 | 53.49841 | 10.24694 | 6730 ft | 267 kts | 5° |
| 2026-05-07 19:21 | 53.51641 | 10.24050 | 6341 ft | 271 kts | 332° |
| 2026-05-07 19:21 | 53.52931 | 10.21808 | 5906 ft | 277 kts | 297° |
| 2026-05-07 19:21 | 53.53277 | 10.18657 | 5469 ft | 280 kts | 264° |
| 2026-05-07 19:22 | 53.52795 | 10.15472 | 5049 ft | 278 kts | 250° |
| 2026-05-07 19:22 | 53.52147 | 10.12501 | 4943 ft | 264 kts | 249° |
| 2026-05-07 19:22 | 53.51518 | 10.09681 | 4968 ft | 249 kts | 249° |
| 2026-05-07 19:22 | 53.50928 | 10.07028 | 4979 ft | 244 kts | 249° |
| 2026-05-07 19:23 | 53.50331 | 10.04352 | 4976 ft | 245 kts | 249° |
| 2026-05-07 19:23 | 53.49658 | 10.01703 | 4972 ft | 246 kts | 240° |
| 2026-05-07 19:23 | 53.48740 | 9.99274 | 4978 ft | 246 kts | 234° |
| 2026-05-07 19:23 | 53.47769 | 9.96920 | 4973 ft | 246 kts | 234° |
| 2026-05-07 19:24 | 53.46787 | 9.94556 | 4975 ft | 247 kts | 234° |
| 2026-05-07 19:24 | 53.45811 | 9.92205 | 4975 ft | 247 kts | 234° |
| 2026-05-07 19:24 | 53.44827 | 9.89834 | 4974 ft | 247 kts | 234° |
| 2026-05-07 19:24 | 53.43863 | 9.87512 | 4862 ft | 241 kts | 234° |
| 2026-05-07 19:25 | 53.42899 | 9.85186 | 4437 ft | 245 kts | 234° |
| 2026-05-07 19:25 | 53.41933 | 9.82851 | 4124 ft | 243 kts | 234° |
| 2026-05-07 19:25 | 53.40969 | 9.80512 | 3779 ft | 242 kts | 234° |
| 2026-05-07 19:25 | 53.40025 | 9.78192 | 3447 ft | 242 kts | 237° |
| 2026-05-07 19:26 | 53.39534 | 9.75557 | 3256 ft | 233 kts | 273° |
| 2026-05-07 19:26 | 53.40070 | 9.73159 | 3096 ft | 218 kts | 314° |
| 2026-05-07 19:26 | 53.41153 | 9.71499 | 2979 ft | 210 kts | 324° |
| 2026-05-07 19:26 | 53.42306 | 9.69929 | 2966 ft | 212 kts | 324° |
| 2026-05-07 19:27 | 53.43491 | 9.68509 | 2955 ft | 211 kts | 342° |
| 2026-05-07 19:27 | 53.44886 | 9.68339 | 2974 ft | 201 kts | 18° |
| 2026-05-07 19:27 | 53.46218 | 9.69103 | 2978 ft | 200 kts | 25° |
| 2026-05-07 19:27 | 53.47516 | 9.69920 | 2962 ft | 199 kts | 24° |
| 2026-05-07 19:28 | 53.48772 | 9.70865 | 2972 ft | 198 kts | 36° |
| 2026-05-07 19:28 | 53.49817 | 9.72351 | 2979 ft | 195 kts | 50° |
| 2026-05-07 19:28 | 53.50703 | 9.74073 | 2978 ft | 196 kts | 52° |
| 2026-05-07 19:28 | 53.51564 | 9.75789 | 2972 ft | 187 kts | 52° |
| 2026-05-07 19:29 | 53.52377 | 9.77405 | 2990 ft | 170 kts | 52° |
| 2026-05-07 19:29 | 53.53122 | 9.78898 | 2850 ft | 168 kts | 53° |
| 2026-05-07 19:29 | 53.53865 | 9.80389 | 2595 ft | 166 kts | 52° |
| 2026-05-07 19:29 | 53.54602 | 9.81862 | 2368 ft | 164 kts | 53° |
| 2026-05-07 19:30 | 53.55339 | 9.83342 | 2139 ft | 162 kts | 53° |
| 2026-05-07 19:30 | 53.56047 | 9.84762 | 1919 ft | 156 kts | 53° |
| 2026-05-07 19:30 | 53.56717 | 9.86097 | 1702 ft | 143 kts | 53° |
| 2026-05-07 19:30 | 53.57318 | 9.87309 | 1541 ft | 126 kts | 53° |
| 2026-05-07 19:31 | 53.57865 | 9.88409 | 1348 ft | 121 kts | 53° |
| 2026-05-07 19:31 | 53.58396 | 9.89479 | 1207 ft | 120 kts | 52° |
| 2026-05-07 19:31 | 53.58943 | 9.90581 | 1033 ft | 122 kts | 52° |
| 2026-05-07 19:31 | 53.59481 | 9.91659 | 874 ft | 121 kts | 52° |
| 2026-05-07 19:32 | 53.60025 | 9.92761 | 706 ft | 122 kts | 51° |
| 2026-05-07 19:32 | 53.60574 | 9.93857 | 538 ft | 123 kts | 51° |
| 2026-05-07 19:32 | 53.61114 | 9.94960 | 365 ft | 122 kts | 52° |
| 2026-05-07 19:32 | 53.61666 | 9.96070 | 203 ft | 122 kts | 50° |
| 2026-05-07 19:33 | 53.62204 | 9.97147 | 63 ft | 113 kts | 50° |
| 2026-05-07 19:33 | 53.62637 | 9.98018 | 62 ft | 77 kts | 51° |
| 2026-05-07 19:33 | 53.62852 | 9.98455 | 62 ft | 34 kts | 49° |
| 2026-05-07 19:33 | 53.63015 | 9.98782 | 62 ft | 40 kts | 50° |
| 2026-05-07 19:34 | 53.63088 | 9.99179 | 62 ft | 22 kts | 96° |
| 2026-05-07 19:34 | 53.63086 | 9.99223 | 62 ft | 0 kts | 95° |
| 2026-05-07 19:34 | 53.63086 | 9.99225 | 62 ft | 0 kts | 95° |
| 2026-05-07 19:34 | 53.63086 | 9.99226 | 62 ft | 0 kts | 95° |
| 2026-05-07 19:35 | 53.63085 | 9.99237 | 62 ft | 3 kts | 95° |
| 2026-05-07 19:35 | 53.63084 | 9.99314 | 62 ft | 7 kts | 85° |
| 2026-05-07 19:35 | 53.63088 | 9.99349 | 62 ft | 0 kts | 75° |
| 2026-05-07 19:36 | 53.63100 | 9.99405 | 62 ft | 11 kts | 62° |
| 2026-05-07 19:37 | 53.63153 | 9.99531 | 62 ft | 13 kts | 52° |
| 2026-05-07 19:37 | 53.63210 | 9.99648 | 62 ft | 12 kts | 49° |
| 2026-05-07 19:37 | 53.63279 | 9.99767 | 62 ft | 16 kts | 45° |
| 2026-05-07 19:37 | 53.63360 | 9.99931 | 62 ft | 18 kts | 50° |
| 2026-05-07 19:38 | 53.63435 | 10.00082 | 62 ft | 14 kts | 54° |
| 2026-05-07 19:38 | 53.63421 | 10.00190 | 62 ft | 6 kts | 120° |
| 2026-05-07 19:38 | 53.63411 | 10.00255 | 62 ft | 5 kts | 90° |
| 2026-05-07 19:38 | 53.63412 | 10.00311 | 62 ft | 3 kts | 86° |
| 2026-05-07 19:39 | 53.63414 | 10.00343 | 62 ft | 0 kts | 86° |